createdAt,value
2018-05-26T00:00:03.827Z,14.40
2018-05-26T00:02:32.220Z,14.40
2018-05-26T00:05:00.803Z,14.40
2018-05-26T00:07:29.182Z,14.30
2018-05-26T00:09:57.723Z,14.20
2018-05-26T00:12:26.166Z,14.20
2018-05-26T00:14:54.623Z,14.20
2018-05-26T00:17:23.158Z,14.10
2018-05-26T00:19:51.764Z,14.00
2018-05-26T00:22:21.087Z,14.00
2018-05-26T00:24:50.071Z,13.90
2018-05-26T00:27:19.199Z,13.90
2018-05-26T00:29:47.555Z,13.90
2018-05-26T00:32:16.690Z,13.80
2018-05-26T00:34:45.262Z,13.80
2018-05-26T00:37:13.617Z,13.80
2018-05-26T00:39:42.034Z,13.80
2018-05-26T00:42:10.492Z,13.80
2018-05-26T00:44:38.928Z,13.90
2018-05-26T00:47:09.023Z,14.00
2018-05-26T00:49:37.590Z,14.00
2018-05-26T00:52:07.346Z,14.10
2018-05-26T00:54:36.923Z,14.10
2018-05-26T00:57:05.303Z,14.20
2018-05-26T00:59:34.611Z,14.30
2018-05-26T01:02:02.994Z,14.30
2018-05-26T01:04:33.305Z,14.40
2018-05-26T01:07:02.431Z,14.50
2018-05-26T01:09:32.150Z,14.50
2018-05-26T01:12:00.546Z,14.60
2018-05-26T01:14:29.106Z,14.60
2018-05-26T01:16:58.410Z,14.60
2018-05-26T01:19:26.842Z,14.60
2018-05-26T01:21:55.427Z,14.60
2018-05-26T01:24:23.970Z,14.60
2018-05-26T01:26:52.902Z,14.60
2018-05-26T01:29:21.265Z,14.60
2018-05-26T01:31:52.006Z,14.60
2018-05-26T01:34:21.312Z,14.60
2018-05-26T01:36:50.744Z,14.60
2018-05-26T01:39:19.215Z,14.60
2018-05-26T01:41:47.751Z,14.50
2018-05-26T01:44:16.155Z,14.50
2018-05-26T01:46:45.467Z,14.40
2018-05-26T01:49:13.832Z,14.40
2018-05-26T01:51:42.263Z,14.40
2018-05-26T01:54:12.872Z,14.30
2018-05-26T01:56:42.183Z,14.20
2018-05-26T01:59:11.347Z,14.20
2018-05-26T02:01:40.480Z,14.20
2018-05-26T02:04:09.839Z,14.10
2018-05-26T02:06:38.371Z,14.10
2018-05-26T02:09:06.838Z,14.10
2018-05-26T02:11:35.395Z,14.00
2018-05-26T02:14:03.939Z,14.00
2018-05-26T02:16:34.185Z,14.00
2018-05-26T02:19:02.771Z,14.00
2018-05-26T02:21:31.200Z,14.00
2018-05-26T02:23:59.711Z,14.10
2018-05-26T02:26:29.023Z,14.10
2018-05-26T02:28:58.326Z,14.10
2018-05-26T02:31:27.655Z,14.10
2018-05-26T02:33:56.935Z,14.10
2018-05-26T02:36:26.387Z,14.10
2018-05-26T02:38:55.227Z,14.10
2018-05-26T02:41:24.536Z,14.10
2018-05-26T02:43:53.864Z,14.20
2018-05-26T02:46:22.615Z,14.20
2018-05-26T02:48:51.197Z,14.20
2018-05-26T02:51:20.362Z,14.30
2018-05-26T02:53:49.829Z,14.30
2018-05-26T02:56:18.373Z,14.30
2018-05-26T02:58:46.858Z,14.40
2018-05-26T03:01:16.187Z,14.40
2018-05-26T03:03:44.628Z,14.50
2018-05-26T03:06:18.736Z,14.60
2018-05-26T03:08:52.947Z,14.70
2018-05-26T03:11:27.167Z,14.80
2018-05-26T03:14:01.375Z,14.80
2018-05-26T03:16:45.787Z,15.00
2018-05-26T03:19:14.919Z,15.10
2018-05-26T03:21:44.267Z,15.10
2018-05-26T03:24:12.804Z,15.10
2018-05-26T03:26:41.174Z,15.30
2018-05-26T03:29:11.066Z,15.50
2018-05-26T03:31:39.430Z,15.40
2018-05-26T03:34:07.967Z,15.50
2018-05-26T03:36:36.526Z,15.60
2018-05-26T03:39:05.830Z,15.70
2018-05-26T03:41:34.240Z,15.70
2018-05-26T03:44:02.640Z,15.80
2018-05-26T03:46:31.941Z,15.90
2018-05-26T03:49:02.218Z,16.00
2018-05-26T03:51:30.770Z,16.00
2018-05-26T03:53:59.321Z,16.00
2018-05-26T03:56:39.799Z,16.10
2018-05-26T03:59:19.942Z,16.10
2018-05-26T04:01:48.624Z,16.20
2018-05-26T04:04:17.927Z,16.30
2018-05-26T04:06:46.351Z,16.30
2018-05-26T04:09:14.747Z,16.40
2018-05-26T04:11:43.143Z,16.40
2018-05-26T04:14:12.327Z,16.40
2018-05-26T04:16:41.514Z,16.40
2018-05-26T04:19:09.963Z,16.40
2018-05-26T04:21:39.310Z,16.50
2018-05-26T04:24:08.614Z,16.60
2018-05-26T04:26:37.372Z,16.60
2018-05-26T04:29:06.573Z,16.70
2018-05-26T04:31:34.930Z,16.70
2018-05-26T04:34:03.336Z,16.80
2018-05-26T04:36:32.582Z,16.90
2018-05-26T04:39:00.955Z,16.80
2018-05-26T04:41:30.135Z,17.00
2018-05-26T04:43:58.678Z,17.00
2018-05-26T04:46:27.047Z,17.10
2018-05-26T04:48:55.443Z,17.10
2018-05-26T04:51:23.799Z,17.20
2018-05-26T04:53:52.210Z,17.30
2018-05-26T04:56:20.586Z,17.40
2018-05-26T04:58:50.054Z,17.50
2018-05-26T05:01:19.225Z,17.60
2018-05-26T05:03:47.638Z,17.60
2018-05-26T05:06:16.122Z,17.70
2018-05-26T05:08:44.488Z,17.80
2018-05-26T05:11:12.911Z,17.90
2018-05-26T05:13:41.314Z,18.00
2018-05-26T05:16:09.767Z,18.10
2018-05-26T05:18:38.902Z,18.30
2018-05-26T05:21:08.063Z,18.30
2018-05-26T05:23:37.190Z,18.40
2018-05-26T05:26:05.567Z,18.40
2018-05-26T05:28:34.338Z,18.50
2018-05-26T05:31:02.771Z,18.60
2018-05-26T05:33:31.215Z,18.60
2018-05-26T05:35:59.608Z,18.70
2018-05-26T05:38:28.002Z,18.70
2018-05-26T05:40:56.380Z,18.80
2018-05-26T05:43:25.618Z,18.80
2018-05-26T05:45:54.068Z,18.80
2018-05-26T05:48:22.424Z,18.90
2018-05-26T05:50:50.891Z,19.00
2018-05-26T05:53:19.251Z,19.00
2018-05-26T05:55:47.639Z,19.20
2018-05-26T05:58:15.991Z,19.20
2018-05-26T06:00:45.106Z,19.60
2018-05-26T06:03:13.515Z,19.50
2018-05-26T06:05:42.052Z,19.80
2018-05-26T06:08:11.999Z,20.20
2018-05-26T06:10:41.179Z,20.40
2018-05-26T06:13:09.715Z,20.40
2018-05-26T06:15:38.067Z,20.60
2018-05-26T06:18:07.378Z,21.00
2018-05-26T06:20:35.831Z,21.00
2018-05-26T06:23:04.983Z,21.30
2018-05-26T06:25:33.517Z,21.20
2018-05-26T06:28:02.071Z,21.30
2018-05-26T06:30:30.642Z,21.20
2018-05-26T06:32:58.996Z,21.20
2018-05-26T06:35:27.722Z,21.20
2018-05-26T06:37:57.000Z,21.20
2018-05-26T06:40:25.370Z,21.20
2018-05-26T06:42:54.510Z,21.20
2018-05-26T06:45:23.698Z,21.30
2018-05-26T06:47:53.855Z,21.30
2018-05-26T06:50:22.411Z,21.30
2018-05-26T06:52:50.776Z,21.40
2018-05-26T06:55:19.259Z,21.40
2018-05-26T06:57:48.563Z,21.40
2018-05-26T07:00:16.997Z,21.40
2018-05-26T07:02:45.349Z,21.40
2018-05-26T07:05:13.731Z,21.40
2018-05-26T07:07:42.135Z,21.40
2018-05-26T07:10:11.919Z,21.30
2018-05-26T07:12:40.306Z,21.30
2018-05-26T07:15:09.611Z,21.30
2018-05-26T07:17:38.935Z,21.30
2018-05-26T07:20:07.318Z,21.30
2018-05-26T07:22:35.703Z,21.20
2018-05-26T07:25:05.289Z,21.20
2018-05-26T07:27:33.682Z,21.20
2018-05-26T07:30:02.075Z,21.10
2018-05-26T07:32:31.399Z,21.10
2018-05-26T07:34:59.943Z,21.00
2018-05-26T07:37:28.344Z,21.10
2018-05-26T07:39:57.832Z,21.00
2018-05-26T07:42:26.230Z,21.00
2018-05-26T07:44:55.450Z,21.00
2018-05-26T07:47:23.839Z,21.00
2018-05-26T07:49:52.255Z,20.90
2018-05-26T07:52:20.634Z,20.90
2018-05-26T07:54:49.175Z,20.60
2018-05-26T07:57:17.624Z,20.30
2018-05-26T07:59:46.067Z,19.90
2018-05-26T08:02:14.431Z,19.50
2018-05-26T08:04:42.846Z,18.90
2018-05-26T08:07:11.239Z,18.50
2018-05-26T08:09:40.495Z,17.70
2018-05-26T08:12:11.262Z,17.50
2018-05-26T08:14:40.151Z,17.50
2018-05-26T08:17:09.424Z,17.10
2018-05-26T08:19:37.818Z,17.10
2018-05-26T08:22:06.179Z,16.80
2018-05-26T08:24:35.357Z,16.20
2018-05-26T08:27:04.521Z,15.90
2018-05-26T08:29:33.031Z,15.90
2018-05-26T08:32:02.217Z,15.70
2018-05-26T08:34:32.090Z,15.70
2018-05-26T08:37:00.487Z,15.60
2018-05-26T08:39:29.741Z,15.50
2018-05-26T08:41:59.035Z,15.50
2018-05-26T08:44:27.426Z,15.60
2018-05-26T08:46:55.798Z,15.80
2018-05-26T08:49:24.170Z,15.90
2018-05-26T08:51:52.634Z,16.00
2018-05-26T08:54:21.002Z,16.10
2018-05-26T08:56:49.387Z,16.10
2018-05-26T08:59:17.942Z,16.10
2018-05-26T09:01:47.143Z,16.40
2018-05-26T09:04:15.511Z,16.50
2018-05-26T09:06:43.894Z,16.60
2018-05-26T09:09:12.290Z,16.40
2018-05-26T09:11:40.682Z,16.30
2018-05-26T09:14:10.324Z,16.20
2018-05-26T09:16:38.719Z,16.40
2018-05-26T09:19:07.130Z,16.60
2018-05-26T09:21:35.543Z,16.70
2018-05-26T09:24:05.430Z,16.90
2018-05-26T09:29:12.445Z,17.10
2018-05-26T09:31:40.932Z,17.30
2018-05-26T09:34:09.383Z,17.30
2018-05-26T09:36:37.786Z,17.50
2018-05-26T09:39:06.299Z,17.60
2018-05-26T09:41:37.142Z,17.80
2018-05-26T09:44:05.549Z,17.70
2018-05-26T09:46:33.931Z,17.80
2018-05-26T09:49:02.307Z,18.00
2018-05-26T09:51:30.687Z,18.10
2018-05-26T09:53:59.228Z,18.20
2018-05-26T09:56:27.822Z,18.40
2018-05-26T09:58:56.758Z,18.40
2018-05-26T10:01:25.200Z,18.50
2018-05-26T10:03:54.514Z,18.60
2018-05-26T10:06:23.131Z,18.60
2018-05-26T10:08:52.315Z,18.70
2018-05-26T10:11:20.870Z,18.70
2018-05-26T10:13:49.275Z,18.70
2018-05-26T10:16:17.654Z,18.80
2018-05-26T10:18:47.019Z,18.80
2018-05-26T10:21:16.166Z,18.80
2018-05-26T10:23:44.560Z,18.80
2018-05-26T10:26:13.002Z,18.80
2018-05-26T10:28:41.420Z,18.80
2018-05-26T10:31:11.361Z,18.80
2018-05-26T10:33:40.551Z,18.80
2018-05-26T10:36:08.934Z,18.80
2018-05-26T10:38:37.315Z,18.70
2018-05-26T10:41:06.467Z,18.70
2018-05-26T10:43:36.119Z,18.70
2018-05-26T10:46:16.315Z,18.70
2018-05-26T10:48:44.730Z,18.70
2018-05-26T10:51:13.300Z,18.80
2018-05-26T10:53:41.666Z,18.80
2018-05-26T10:56:10.798Z,18.90
2018-05-26T10:58:39.947Z,18.80
2018-05-26T11:01:09.103Z,18.80
2018-05-26T11:03:37.591Z,18.80
2018-05-26T11:06:05.984Z,18.80
2018-05-26T11:08:34.474Z,18.90
2018-05-26T11:11:03.355Z,18.90
2018-05-26T11:13:31.793Z,18.90
2018-05-26T11:16:01.092Z,18.90
2018-05-26T11:18:29.639Z,18.90
2018-05-26T11:20:58.878Z,19.00
2018-05-26T11:23:27.285Z,19.00
2018-05-26T11:25:56.555Z,19.10
2018-05-26T11:28:25.067Z,19.10
2018-05-26T11:30:53.720Z,19.00
2018-05-26T11:33:23.067Z,19.00
2018-05-26T11:35:52.278Z,19.00
2018-05-26T11:38:20.695Z,19.00
2018-05-26T11:40:49.255Z,19.00
2018-05-26T11:43:19.131Z,19.00
2018-05-26T11:45:47.535Z,19.00
2018-05-26T11:48:16.715Z,19.00
2018-05-26T11:50:45.311Z,19.00
2018-05-26T11:53:13.874Z,19.00
2018-05-26T11:55:43.239Z,19.00
2018-05-26T11:58:11.614Z,19.00
2018-05-26T12:00:40.171Z,19.10
2018-05-26T12:03:08.699Z,19.10
2018-05-26T12:05:37.146Z,19.20
2018-05-26T12:08:05.568Z,19.10
2018-05-26T12:10:34.171Z,19.20
2018-05-26T12:13:04.139Z,19.20
2018-05-26T12:15:32.559Z,19.20
2018-05-26T12:18:01.009Z,19.20
2018-05-26T12:20:29.560Z,19.30
2018-05-26T12:22:57.949Z,19.30
2018-05-26T12:25:26.403Z,19.30
2018-05-26T12:27:58.127Z,19.50
2018-05-26T12:30:27.429Z,19.50
2018-05-26T12:32:55.822Z,19.50
2018-05-26T12:35:25.317Z,19.50
2018-05-26T12:40:29.335Z,19.70
2018-05-26T12:42:57.735Z,19.70
2018-05-26T12:45:26.195Z,19.70
2018-05-26T12:47:55.362Z,19.80
2018-05-26T12:50:24.539Z,19.90
2018-05-26T12:52:52.947Z,19.80
2018-05-26T12:55:21.530Z,19.80
2018-05-26T12:57:51.926Z,19.80
2018-05-26T13:00:20.499Z,19.80
2018-05-26T13:02:49.294Z,19.90
2018-05-26T13:05:17.859Z,19.80
2018-05-26T13:07:46.247Z,19.90
2018-05-26T13:10:14.807Z,19.90
2018-05-26T13:12:43.222Z,19.90
2018-05-26T13:15:11.683Z,19.90
2018-05-26T13:17:40.835Z,19.90
2018-05-26T13:20:10.163Z,19.90
2018-05-26T13:22:38.552Z,19.90
2018-05-26T13:25:07.245Z,20.00
2018-05-26T13:27:35.616Z,20.00
2018-05-26T13:30:04.019Z,20.00
2018-05-26T13:32:32.430Z,19.90
2018-05-26T13:35:00.826Z,19.90
2018-05-26T13:37:29.268Z,20.00
2018-05-26T13:39:57.836Z,19.90
2018-05-26T13:42:26.279Z,19.90
2018-05-26T13:44:54.830Z,20.00
2018-05-26T13:47:24.013Z,20.10
2018-05-26T13:49:52.559Z,20.10
2018-05-26T13:52:20.998Z,20.00
2018-05-26T13:54:49.378Z,20.10
2018-05-26T13:57:18.031Z,20.30
2018-05-26T13:59:46.568Z,20.30
2018-05-26T14:02:14.952Z,20.40
2018-05-26T14:04:43.367Z,20.50
2018-05-26T14:07:11.964Z,20.50
2018-05-26T14:09:41.321Z,20.50
2018-05-26T14:12:09.690Z,20.50
2018-05-26T14:14:38.121Z,20.60
2018-05-26T14:17:06.511Z,20.40
2018-05-26T14:19:35.646Z,20.20
2018-05-26T14:22:04.048Z,20.20
2018-05-26T14:24:32.440Z,20.30
2018-05-26T14:27:00.836Z,20.50
2018-05-26T14:29:30.011Z,20.60
2018-05-26T14:31:58.463Z,20.50
2018-05-26T14:34:26.898Z,20.60
2018-05-26T14:36:55.340Z,20.70
2018-05-26T14:39:25.203Z,20.80
2018-05-26T14:41:54.420Z,20.60
2018-05-26T14:44:23.587Z,20.50
2018-05-26T14:46:52.906Z,20.60
2018-05-26T14:49:21.291Z,20.50
2018-05-26T14:51:49.698Z,20.50
2018-05-26T14:54:18.147Z,20.40
2018-05-26T14:56:46.701Z,20.40
2018-05-26T14:59:15.258Z,20.50
2018-05-26T15:01:45.225Z,20.60
2018-05-26T15:04:14.739Z,20.60
2018-05-26T15:06:43.112Z,20.50
2018-05-26T15:09:11.663Z,20.60
2018-05-26T15:11:40.922Z,20.60
2018-05-26T15:14:09.342Z,20.60
2018-05-26T15:16:37.893Z,20.60
2018-05-26T15:19:06.446Z,20.70
2018-05-26T15:21:34.874Z,20.50
2018-05-26T15:24:04.159Z,20.40
2018-05-26T15:26:32.649Z,20.40
2018-05-26T15:29:01.127Z,20.30
2018-05-26T15:31:29.508Z,20.40
2018-05-26T15:33:57.910Z,20.50
2018-05-26T15:36:26.461Z,20.60
2018-05-26T15:38:55.617Z,20.40
2018-05-26T15:41:25.019Z,20.40
2018-05-26T15:43:55.522Z,20.40
2018-05-26T15:46:23.918Z,20.50
2018-05-26T15:48:53.220Z,20.20
2018-05-26T15:51:21.657Z,20.20
2018-05-26T15:53:51.751Z,20.00
2018-05-26T15:56:20.883Z,20.00
2018-05-26T15:58:49.457Z,19.90
2018-05-26T16:01:17.975Z,19.90
2018-05-26T16:03:47.279Z,20.00
2018-05-26T16:06:15.827Z,20.00
2018-05-26T16:08:44.370Z,20.00
2018-05-26T16:11:12.923Z,19.90
2018-05-26T16:13:42.199Z,19.70
2018-05-26T16:16:10.730Z,19.60
2018-05-26T16:18:39.275Z,19.70
2018-05-26T16:21:07.828Z,19.60
2018-05-26T16:23:37.269Z,19.50
2018-05-26T16:26:07.994Z,19.30
2018-05-26T16:28:36.446Z,19.30
2018-05-26T16:31:04.908Z,19.30
2018-05-26T16:33:34.220Z,19.40
2018-05-26T16:36:02.649Z,19.40
2018-05-26T16:38:31.039Z,19.50
2018-05-26T16:40:59.631Z,19.60
2018-05-26T16:43:28.783Z,19.80
2018-05-26T16:45:57.504Z,19.80
2018-05-26T16:48:26.907Z,20.00
2018-05-26T16:50:56.242Z,20.00
2018-05-26T16:53:24.615Z,20.00
2018-05-26T16:55:53.120Z,20.10
2018-05-26T16:58:22.317Z,20.20
2018-05-26T17:00:51.623Z,20.20
2018-05-26T17:03:20.007Z,20.30
2018-05-26T17:05:48.455Z,20.30
2018-05-26T17:08:16.839Z,20.40
2018-05-26T17:10:46.275Z,20.50
2018-05-26T17:13:14.668Z,20.60
2018-05-26T17:15:43.211Z,20.70
2018-05-26T17:18:11.682Z,20.80
2018-05-26T17:20:40.868Z,20.80
2018-05-26T17:23:10.035Z,20.90
2018-05-26T17:25:39.496Z,21.10
2018-05-26T17:28:07.895Z,21.10
2018-05-26T17:30:36.451Z,21.20
2018-05-26T17:33:04.863Z,21.30
2018-05-26T17:35:33.259Z,21.40
2018-05-26T17:38:01.703Z,21.40
2018-05-26T17:40:30.295Z,21.40
2018-05-26T17:42:58.695Z,21.40
2018-05-26T17:45:27.180Z,21.40
2018-05-26T17:47:56.334Z,21.40
2018-05-26T17:50:26.111Z,21.40
2018-05-26T17:52:54.491Z,21.40
2018-05-26T17:55:23.715Z,21.40
2018-05-26T17:57:52.091Z,21.30
2018-05-26T18:02:56.079Z,21.30
2018-05-26T18:05:24.475Z,21.30
2018-05-26T18:07:52.895Z,21.40
2018-05-26T18:10:21.444Z,21.40
2018-05-26T18:12:49.859Z,21.40
2018-05-26T18:15:18.266Z,21.40
2018-05-26T18:17:47.599Z,21.40
2018-05-26T18:20:16.140Z,21.50
2018-05-26T18:22:44.555Z,21.40
2018-05-26T18:25:12.944Z,21.30
2018-05-26T18:27:41.351Z,21.30
2018-05-26T18:30:10.531Z,21.30
2018-05-26T18:32:38.911Z,21.30
2018-05-26T18:35:07.355Z,21.30
2018-05-26T18:37:35.745Z,21.30
2018-05-26T18:40:04.215Z,21.30
2018-05-26T18:42:32.618Z,21.30
2018-05-26T18:45:00.995Z,21.30
2018-05-26T18:47:29.408Z,21.20
2018-05-26T18:49:57.950Z,21.20
2018-05-26T18:52:27.091Z,21.10
2018-05-26T18:54:56.435Z,21.00
2018-05-26T18:57:27.243Z,21.00
2018-05-26T18:59:55.767Z,21.00
2018-05-26T19:02:24.148Z,20.90
2018-05-26T19:04:52.534Z,20.90
2018-05-26T19:07:20.927Z,20.80
2018-05-26T19:09:49.326Z,20.80
2018-05-26T19:12:17.715Z,20.70
2018-05-26T19:14:46.111Z,20.70
2018-05-26T19:17:14.498Z,20.60
2018-05-26T19:19:42.899Z,20.60
2018-05-26T19:22:11.395Z,20.60
2018-05-26T19:24:39.794Z,20.50
2018-05-26T19:27:08.243Z,20.50
2018-05-26T19:29:37.559Z,20.50
2018-05-26T19:32:05.973Z,20.40
2018-05-26T19:34:34.424Z,20.40
2018-05-26T19:37:03.911Z,20.40
2018-05-26T19:39:32.326Z,20.40
2018-05-26T19:42:01.527Z,20.30
2018-05-26T19:44:29.995Z,20.30
2018-05-26T19:46:58.488Z,20.30
2018-05-26T19:49:27.051Z,20.30
2018-05-26T19:51:55.501Z,20.20
2018-05-26T19:54:23.943Z,20.20
2018-05-26T19:56:52.369Z,20.20
2018-05-26T19:59:20.906Z,20.20
2018-05-26T20:01:50.146Z,20.20
2018-05-26T20:04:18.703Z,20.20
2018-05-26T20:06:48.081Z,20.10
2018-05-26T20:09:16.498Z,20.20
2018-05-26T20:11:45.068Z,20.10
2018-05-26T20:14:13.498Z,20.10
2018-05-26T20:16:42.891Z,20.10
2018-05-26T20:19:11.511Z,20.10
2018-05-26T20:21:39.900Z,20.10
2018-05-26T20:24:09.890Z,20.00
2018-05-26T20:26:40.331Z,20.00
2018-05-26T20:29:08.783Z,20.10
2018-05-26T20:31:37.249Z,20.00
2018-05-26T20:34:06.600Z,20.00
2018-05-26T20:36:35.194Z,19.90
2018-05-26T20:39:03.779Z,19.90
2018-05-26T20:41:32.175Z,19.90
2018-05-26T20:44:00.556Z,19.90
2018-05-26T20:46:28.979Z,19.80
2018-05-26T20:48:57.387Z,19.80
2018-05-26T20:51:26.714Z,19.80
2018-05-26T20:53:55.139Z,19.80
2018-05-26T20:56:23.683Z,19.70
2018-05-26T20:58:52.936Z,19.70
2018-05-26T21:01:23.015Z,19.60
2018-05-26T21:03:52.244Z,19.60
2018-05-26T21:06:20.812Z,19.60
2018-05-26T21:08:49.259Z,19.60
2018-05-26T21:11:17.808Z,19.60
2018-05-26T21:13:46.191Z,19.50
2018-05-26T21:16:14.563Z,19.50
2018-05-26T21:18:42.926Z,19.50
2018-05-26T21:21:11.349Z,19.50
2018-05-26T21:23:40.507Z,19.40
2018-05-26T21:26:13.431Z,19.40
2018-05-26T21:28:41.875Z,19.30
2018-05-26T21:31:11.091Z,19.20
2018-05-26T21:33:39.507Z,19.10
2018-05-26T21:36:08.669Z,19.00
2018-05-26T21:38:37.038Z,19.10
2018-05-26T21:41:05.583Z,19.00
2018-05-26T21:43:34.731Z,18.80
2018-05-26T21:46:03.150Z,18.80
2018-05-26T21:48:31.531Z,18.70
2018-05-26T21:50:59.920Z,18.60
2018-05-26T21:53:28.471Z,18.60
2018-05-26T21:55:58.473Z,18.40
2018-05-26T21:58:26.846Z,18.40
2018-05-26T22:00:55.407Z,18.30
2018-05-26T22:03:24.867Z,18.20
2018-05-26T22:05:54.175Z,18.10
2018-05-26T22:08:22.563Z,18.10
2018-05-26T22:10:52.695Z,18.00
2018-05-26T22:13:21.066Z,18.00
2018-05-26T22:15:50.271Z,17.90
2018-05-26T22:18:19.653Z,17.90
2018-05-26T22:20:48.975Z,17.80
2018-05-26T22:23:17.366Z,17.80
2018-05-26T22:25:46.138Z,17.80
2018-05-26T22:28:14.519Z,17.80
2018-05-26T22:30:43.075Z,17.70
2018-05-26T22:33:12.243Z,17.60
2018-05-26T22:35:41.470Z,17.60
2018-05-26T22:38:09.912Z,17.60
2018-05-26T22:40:38.340Z,17.60
2018-05-26T22:43:06.887Z,17.50
2018-05-26T22:45:35.323Z,17.50
2018-05-26T22:48:03.767Z,17.40
2018-05-26T22:50:32.143Z,17.40
2018-05-26T22:53:00.534Z,17.30
2018-05-26T22:55:29.855Z,17.30
2018-05-26T22:57:58.253Z,17.20
2018-05-26T23:00:26.676Z,17.30
2018-05-26T23:02:55.815Z,17.20
2018-05-26T23:05:24.185Z,17.20
2018-05-26T23:07:52.608Z,17.20
2018-05-26T23:10:21.136Z,17.10
2018-05-26T23:12:49.559Z,17.10
2018-05-26T23:15:17.927Z,17.10
2018-05-26T23:17:46.306Z,17.10
2018-05-26T23:20:14.778Z,17.00
2018-05-26T23:22:43.164Z,17.00
2018-05-26T23:25:11.563Z,17.00
2018-05-26T23:27:39.991Z,17.00
2018-05-26T23:30:08.541Z,17.00
2018-05-26T23:32:36.946Z,17.00
2018-05-26T23:37:37.679Z,17.00
2018-05-26T23:40:06.384Z,17.00
2018-05-26T23:42:34.767Z,17.00
2018-05-26T23:45:03.135Z,16.90
2018-05-26T23:47:31.604Z,17.00
2018-05-26T23:50:00.131Z,16.90
2018-05-26T23:52:28.515Z,16.90
2018-05-26T23:54:56.975Z,17.00
2018-05-26T23:57:25.375Z,17.00
2018-05-26T23:59:53.884Z,16.90
